Time;durP1;ratioP1;P1;durP2;ratioP2;P2;SDS_P1;SDS_P2;PMS_P1;PMS_P2;Temp;Humidity;BMP_temperature;BMP_pressure;BME280_temperature;BME280_humidity;BME280_pressure;Samples;Min_cycle;Max_cycle;Signal;HPM_P1;HPM_P2
2022/12/01 00:01:31;;;;;;;26.00;18.80;;;4.50;99.90;;;;;;4954500;28;20244;-91
2022/12/01 00:03:59;;;;;;;29.73;20.80;;;4.40;99.90;;;;;;4954109;28;20315;-91
2022/12/01 00:06:28;;;;;;;31.52;20.23;;;4.40;99.90;;;;;;4953777;28;20243;-91
2022/12/01 00:11:48;;;;;;;24.95;19.33;;;4.40;99.90;;;;;;4954140;28;20299;-91
2022/12/01 00:14:17;;;;;;;26.63;19.92;;;4.40;99.90;;;;;;4953923;28;20229;-91
2022/12/01 00:16:46;;;;;;;28.77;20.90;;;4.30;99.90;;;;;;4953716;28;20229;-91
2022/12/01 00:19:14;;;;;;;33.50;20.35;;;4.30;99.90;;;;;;4953840;28;20304;-91
2022/12/01 00:21:43;;;;;;;30.70;19.90;;;4.30;99.90;;;;;;4955928;28;20300;-91
2022/12/01 00:24:11;;;;;;;25.77;19.55;;;4.30;99.90;;;;;;4955842;28;20229;-91
2022/12/01 00:26:40;;;;;;;31.30;19.08;;;4.30;99.90;;;;;;4956077;28;20201;-91
2022/12/01 00:29:10;;;;;;;27.48;20.02;;;4.20;99.90;;;;;;4956049;28;20296;-91
2022/12/01 00:31:38;;;;;;;27.77;19.95;;;4.20;99.90;;;;;;4956027;28;20201;-91
2022/12/01 00:34:07;;;;;;;24.83;18.15;;;4.20;99.90;;;;;;4959075;28;20263;-91
2022/12/01 00:36:39;;;;;;;24.80;19.70;;;4.20;99.90;;;;;;4960477;28;20225;-91
2022/12/01 00:39:08;;;;;;;34.00;19.95;;;4.20;99.90;;;;;;4958984;28;20211;-92
2022/12/01 00:41:36;;;;;;;25.50;19.60;;;4.20;99.90;;;;;;4956062;28;20205;-91
2022/12/01 00:44:05;;;;;;;30.92;20.08;;;4.10;99.90;;;;;;4955441;28;20312;-91
2022/12/01 00:46:34;;;;;;;28.45;19.95;;;4.10;99.90;;;;;;4955165;28;20205;-91
2022/12/01 00:49:03;;;;;;;31.42;21.60;;;4.00;99.90;;;;;;4955390;28;20247;-91
2022/12/01 00:51:32;;;;;;;29.35;19.95;;;4.00;99.90;;;;;;4955513;28;20219;-91
2022/12/01 00:54:00;;;;;;;29.88;19.10;;;4.00;99.90;;;;;;4955418;28;20225;-92
2022/12/01 00:56:28;;;;;;;26.83;19.20;;;3.90;99.90;;;;;;4955343;28;20215;-91
2022/12/01 00:58:57;;;;;;;33.00;21.33;;;3.90;99.90;;;;;;4955160;28;20221;-91
2022/12/01 01:01:25;;;;;;;24.25;19.33;;;3.90;99.90;;;;;;4955558;28;20209;-91
2022/12/01 01:03:55;;;;;;;38.35;19.20;;;3.90;99.90;;;;;;4955328;28;20236;-92
2022/12/01 01:06:23;;;;;;;29.13;19.90;;;3.80;99.90;;;;;;4955251;29;20296;-91
2022/12/01 01:08:51;;;;;;;38.00;21.73;;;3.80;99.90;;;;;;4955061;28;20272;-92
2022/12/01 01:11:19;;;;;;;24.30;19.50;;;3.80;99.90;;;;;;4955006;28;20209;-91
2022/12/01 01:13:47;;;;;;;25.67;20.13;;;3.80;99.90;;;;;;4955233;28;20292;-91
2022/12/01 01:16:20;;;;;;;27.88;19.52;;;3.80;99.90;;;;;;4955214;28;20240;-91
2022/12/01 01:18:49;;;;;;;30.45;20.77;;;3.80;99.90;;;;;;4954115;28;20208;-91
2022/12/01 01:21:21;;;;;;;30.25;21.55;;;3.80;99.90;;;;;;4955478;28;20208;-91
2022/12/01 01:23:50;;;;;;;27.42;20.40;;;3.80;99.90;;;;;;4954932;28;20247;-91
2022/12/01 01:26:21;;;;;;;22.52;19.42;;;3.80;99.90;;;;;;4954980;28;20216;-91
2022/12/01 01:28:50;;;;;;;24.15;19.42;;;3.70;99.90;;;;;;4955139;28;20209;-92
2022/12/01 01:31:22;;;;;;;30.50;19.63;;;3.70;99.90;;;;;;4955315;29;20213;-92
2022/12/01 01:33:50;;;;;;;33.85;21.60;;;3.70;99.90;;;;;;4955051;29;20256;-91
2022/12/01 01:36:20;;;;;;;31.67;20.73;;;3.70;99.90;;;;;;4954753;28;20311;-91
2022/12/01 01:38:50;;;;;;;23.13;19.33;;;3.80;99.90;;;;;;4954566;28;20232;-91
2022/12/01 01:41:19;;;;;;;28.45;20.20;;;3.70;99.90;;;;;;4954717;28;20296;-90
2022/12/01 01:43:50;;;;;;;26.83;19.30;;;3.80;99.90;;;;;;4954751;28;20229;-91
2022/12/01 01:46:20;;;;;;;27.98;19.25;;;3.80;99.90;;;;;;4955027;28;20336;-91
2022/12/01 01:48:52;;;;;;;23.48;18.90;;;3.80;99.90;;;;;;4954472;28;20284;-91
2022/12/01 01:51:26;;;;;;;25.98;18.77;;;3.80;99.90;;;;;;4954793;28;20205;-91
2022/12/01 01:53:58;;;;;;;25.88;18.70;;;3.80;99.90;;;;;;4955242;28;20312;-90
2022/12/01 01:56:28;;;;;;;31.58;19.95;;;3.80;99.90;;;;;;4954866;28;20295;-91
2022/12/01 01:58:56;;;;;;;34.03;21.65;;;3.80;99.90;;;;;;4954240;28;20231;-91
2022/12/01 02:01:25;;;;;;;24.02;18.23;;;3.70;99.90;;;;;;4954670;28;20272;-92
2022/12/01 02:03:54;;;;;;;20.75;18.45;;;3.70;99.90;;;;;;4954707;28;20252;-85
2022/12/01 02:06:24;;;;;;;28.83;21.20;;;3.70;99.90;;;;;;4954533;28;20217;-85
2022/12/01 02:08:53;;;;;;;30.52;19.10;;;3.70;99.90;;;;;;4954255;28;20273;-86
2022/12/01 02:11:47;;;;;;;24.45;18.73;;;3.70;99.90;;;;;;4954965;28;20233;-86
2022/12/01 02:14:43;;;;;;;28.52;19.38;;;3.70;99.90;;;;;;4954248;28;20252;-86
2022/12/01 02:17:21;;;;;;;26.23;18.52;;;3.70;99.90;;;;;;4954234;28;20241;-86
2022/12/01 02:20:12;;;;;;;27.42;19.58;;;3.70;99.90;;;;;;4954805;28;20213;-85
2022/12/01 02:22:53;;;;;;;35.92;21.40;;;3.60;99.90;;;;;;4954366;28;20229;-85
2022/12/01 02:25:33;;;;;;;30.05;20.17;;;3.60;99.90;;;;;;4954653;28;20402;-85
2022/12/01 02:28:34;;;;;;;31.25;19.92;;;3.60;99.90;;;;;;4954361;28;20205;-85
2022/12/01 02:31:08;;;;;;;29.60;20.55;;;3.70;99.90;;;;;;4957550;28;20295;-85
2022/12/01 02:33:51;;;;;;;34.38;19.33;;;3.60;99.90;;;;;;4957641;28;20315;-85
2022/12/01 02:36:26;;;;;;;36.63;22.10;;;3.60;99.90;;;;;;4957892;28;20259;-85
2022/12/01 02:39:01;;;;;;;31.25;21.23;;;3.50;99.90;;;;;;4957720;28;20288;-85
2022/12/01 02:41:33;;;;;;;29.67;19.23;;;3.50;99.90;;;;;;4957759;28;20236;-85
2022/12/01 02:44:06;;;;;;;28.98;20.48;;;3.50;99.90;;;;;;4957850;28;20236;-85
2022/12/01 02:46:39;;;;;;;36.20;21.08;;;3.50;99.90;;;;;;4957468;28;20220;-85
2022/12/01 02:49:13;;;;;;;29.75;19.90;;;3.50;99.90;;;;;;4957469;28;20205;-84
2022/12/01 02:51:44;;;;;;;29.52;20.58;;;3.40;99.90;;;;;;4957830;28;20213;-85
2022/12/01 02:54:14;;;;;;;24.52;20.23;;;3.40;99.90;;;;;;4957583;28;20317;-85
2022/12/01 02:56:45;;;;;;;25.80;20.27;;;3.40;99.90;;;;;;4957240;28;20296;-85
2022/12/01 02:59:14;;;;;;;27.17;19.95;;;3.40;99.90;;;;;;4957248;28;20232;-85
2022/12/01 03:01:58;;;;;;;27.20;19.98;;;3.40;99.90;;;;;;4957482;28;20212;-86
2022/12/01 03:04:49;;;;;;;24.33;19.88;;;3.30;99.90;;;;;;4957487;28;20232;-86
2022/12/01 03:07:36;;;;;;;27.45;19.08;;;3.40;99.90;;;;;;4957586;29;20197;-91
2022/12/01 03:10:13;;;;;;;30.15;19.92;;;3.40;99.90;;;;;;4957588;28;20213;-92
2022/12/01 03:12:50;;;;;;;27.55;21.25;;;3.40;99.90;;;;;;4957097;28;20311;-91
2022/12/01 03:15:29;;;;;;;23.83;19.13;;;3.30;99.90;;;;;;4957133;28;20240;-92
2022/12/01 03:18:06;;;;;;;33.95;21.67;;;3.30;99.90;;;;;;4957119;28;20232;-91
2022/12/01 03:20:37;;;;;;;30.52;19.83;;;3.30;99.90;;;;;;4957187;28;20303;-91
2022/12/01 03:23:10;;;;;;;25.08;19.15;;;3.30;99.90;;;;;;4957591;28;20239;-92
2022/12/01 03:25:41;;;;;;;31.25;21.55;;;3.30;99.90;;;;;;4956924;28;20217;-91
2022/12/01 03:28:14;;;;;;;30.77;20.92;;;3.20;99.90;;;;;;4957081;28;20205;-92
2022/12/01 03:30:55;;;;;;;28.95;21.35;;;3.20;99.90;;;;;;4957155;28;20223;-91
2022/12/01 03:33:30;;;;;;;29.02;20.23;;;3.10;99.90;;;;;;4956770;28;20233;-91
2022/12/01 03:36:03;;;;;;;31.48;19.75;;;3.10;99.90;;;;;;4956802;28;20219;-91
2022/12/01 03:38:35;;;;;;;38.42;20.27;;;3.00;99.90;;;;;;4956485;28;20344;-91
2022/12/01 03:41:08;;;;;;;30.58;21.05;;;3.00;99.90;;;;;;4955853;28;20273;-91
2022/12/01 03:43:41;;;;;;;28.75;20.00;;;3.00;99.90;;;;;;4960344;28;20235;-91
2022/12/01 03:46:13;;;;;;;29.85;20.42;;;3.00;99.90;;;;;;4961230;28;20213;-91
2022/12/01 03:48:44;;;;;;;40.13;20.65;;;3.00;99.90;;;;;;4956937;28;20232;-91
2022/12/01 03:51:16;;;;;;;36.72;22.90;;;3.00;99.90;;;;;;4956460;28;20213;-91
2022/12/01 03:53:53;;;;;;;31.77;21.17;;;3.00;99.90;;;;;;4956564;28;20241;-91
2022/12/01 03:56:26;;;;;;;23.58;18.20;;;3.10;99.90;;;;;;4956543;28;20243;-91
2022/12/01 03:58:57;;;;;;;30.83;22.17;;;3.00;99.90;;;;;;4956129;28;20221;-91
2022/12/01 04:01:31;;;;;;;27.05;21.42;;;3.10;99.90;;;;;;4956496;28;20265;-91
2022/12/01 04:04:06;;;;;;;35.70;21.23;;;3.00;99.90;;;;;;4956505;28;20272;-91
2022/12/01 04:06:35;;;;;;;25.83;20.40;;;3.00;99.90;;;;;;4956172;28;20211;-91
2022/12/01 04:09:03;;;;;;;35.53;21.48;;;3.00;99.90;;;;;;4956265;28;20201;-92
2022/12/01 04:14:17;;;;;;;29.20;21.58;;;3.00;99.90;;;;;;4955926;28;20225;-91
2022/12/01 04:16:45;;;;;;;29.40;20.38;;;3.00;99.90;;;;;;4955635;28;20264;-91
2022/12/01 04:19:15;;;;;;;26.73;19.13;;;3.00;99.90;;;;;;4955724;28;20276;-90
2022/12/01 04:21:44;;;;;;;28.80;21.13;;;3.00;99.90;;;;;;4956153;28;20272;-91
2022/12/01 04:24:13;;;;;;;31.15;22.58;;;3.00;99.90;;;;;;4955710;28;20229;-91
2022/12/01 04:26:42;;;;;;;26.05;19.05;;;3.00;99.90;;;;;;4955725;29;20215;-91
2022/12/01 04:29:11;;;;;;;32.65;19.88;;;3.00;99.90;;;;;;4955779;28;20205;-90
2022/12/01 04:31:40;;;;;;;27.50;20.80;;;3.00;99.90;;;;;;4955921;28;20209;-91
2022/12/01 04:34:09;;;;;;;27.77;20.33;;;3.00;99.90;;;;;;4955869;28;20241;-92
2022/12/01 04:36:39;;;;;;;40.00;22.05;;;3.10;99.90;;;;;;4955871;28;20213;-92
2022/12/01 04:39:07;;;;;;;26.73;19.02;;;3.10;99.90;;;;;;4955655;28;20228;-90
2022/12/01 04:41:35;;;;;;;25.45;20.20;;;3.10;99.90;;;;;;4955767;28;20209;-91
2022/12/01 04:44:04;;;;;;;30.23;21.35;;;3.10;99.90;;;;;;4955467;28;20229;-91
2022/12/01 04:46:32;;;;;;;31.90;23.10;;;3.10;99.90;;;;;;4955224;28;20241;-90
2022/12/01 04:49:00;;;;;;;28.48;20.35;;;3.10;99.90;;;;;;4955372;28;20213;-90
2022/12/01 04:51:29;;;;;;;29.05;20.90;;;3.10;99.90;;;;;;4955524;28;20212;-91
2022/12/01 04:53:59;;;;;;;28.20;19.90;;;3.10;99.90;;;;;;4955238;28;20229;-90
2022/12/01 04:56:27;;;;;;;32.13;22.70;;;3.20;99.90;;;;;;4955503;28;20208;-91
2022/12/01 04:58:55;;;;;;;30.77;20.83;;;3.20;99.90;;;;;;4955247;28;20225;-91
2022/12/01 05:01:23;;;;;;;27.02;20.70;;;3.20;99.90;;;;;;4955192;28;20209;-91
2022/12/01 05:03:52;;;;;;;21.17;18.83;;;3.20;99.90;;;;;;4955408;28;20312;-91
2022/12/01 05:06:22;;;;;;;30.38;19.77;;;3.20;99.90;;;;;;4955281;28;20211;-91
2022/12/01 05:08:51;;;;;;;25.20;19.80;;;3.20;99.90;;;;;;4955040;29;20236;-91
2022/12/01 05:11:21;;;;;;;25.60;19.48;;;3.20;99.90;;;;;;4955117;28;20213;-91
2022/12/01 05:13:50;;;;;;;25.25;19.35;;;3.20;99.90;;;;;;4955231;29;20267;-91
2022/12/01 05:16:20;;;;;;;26.83;20.92;;;3.20;99.90;;;;;;4955372;28;20236;-85
2022/12/01 05:18:50;;;;;;;28.75;22.10;;;3.20;99.90;;;;;;4954752;28;20219;-85
2022/12/01 05:21:17;;;;;;;27.35;20.58;;;3.20;99.90;;;;;;4955316;28;20272;-85
2022/12/01 05:23:45;;;;;;;29.60;20.73;;;3.20;99.90;;;;;;4954875;28;20261;-85
2022/12/01 05:26:14;;;;;;;27.08;20.10;;;3.20;99.90;;;;;;4954779;28;20237;-85
2022/12/01 05:28:44;;;;;;;29.90;20.55;;;3.10;99.90;;;;;;4955081;28;20209;-85
2022/12/01 05:31:12;;;;;;;26.17;19.63;;;3.10;99.90;;;;;;4954651;28;20321;-84
2022/12/01 05:33:40;;;;;;;32.63;22.23;;;3.10;99.90;;;;;;4954779;28;20240;-85
2022/12/01 05:36:09;;;;;;;27.58;20.38;;;3.10;99.90;;;;;;4954712;28;20295;-85
2022/12/01 05:38:38;;;;;;;25.42;20.65;;;3.10;99.90;;;;;;4954596;28;20205;-85
2022/12/01 05:41:06;;;;;;;29.55;20.83;;;3.20;99.90;;;;;;4954831;28;20263;-85
2022/12/01 05:43:34;;;;;;;36.47;20.80;;;3.20;99.90;;;;;;4954809;28;20229;-85
2022/12/01 05:46:04;;;;;;;25.95;19.17;;;3.20;99.90;;;;;;4954838;28;20217;-91
2022/12/01 05:48:33;;;;;;;27.90;21.98;;;3.20;99.90;;;;;;4954176;28;20209;-91
2022/12/01 05:51:07;;;;;;;35.78;20.60;;;3.20;99.90;;;;;;4954522;28;20205;-91
2022/12/01 05:53:35;;;;;;;28.85;19.63;;;3.20;99.90;;;;;;4954707;28;20264;-91
2022/12/01 05:56:03;;;;;;;30.33;20.92;;;3.20;99.90;;;;;;4955197;28;20215;-90
2022/12/01 05:58:32;;;;;;;40.58;22.85;;;3.20;99.90;;;;;;4954597;28;20201;-91
2022/12/01 06:01:01;;;;;;;31.05;22.30;;;3.20;99.90;;;;;;4954396;28;20311;-91
2022/12/01 06:03:31;;;;;;;24.00;20.13;;;3.20;99.90;;;;;;4954811;28;20233;-90
2022/12/01 06:05:59;;;;;;;33.47;22.52;;;3.30;99.90;;;;;;4957668;28;20242;-91
2022/12/01 06:08:28;;;;;;;29.15;21.08;;;3.20;99.90;;;;;;4958744;28;20255;-91
2022/12/01 06:10:56;;;;;;;32.25;21.60;;;3.20;99.90;;;;;;4958355;28;20208;-91
2022/12/01 06:13:24;;;;;;;32.90;21.67;;;3.20;99.90;;;;;;4958181;28;20237;-91
2022/12/01 06:15:57;;;;;;;49.53;22.20;;;3.20;99.90;;;;;;4958451;28;20288;-91
2022/12/01 06:18:26;;;;;;;33.53;20.25;;;3.20;99.90;;;;;;4957745;28;20219;-91
2022/12/01 06:20:56;;;;;;;25.83;20.48;;;3.10;99.90;;;;;;4957908;28;20228;-92
2022/12/01 06:23:24;;;;;;;29.63;19.95;;;3.10;99.90;;;;;;4958055;29;20239;-89
2022/12/01 06:25:57;;;;;;;27.33;20.45;;;3.10;99.90;;;;;;4959141;28;20209;-90
2022/12/01 06:28:25;;;;;;;30.67;20.25;;;3.10;99.90;;;;;;4957987;28;20209;-91
2022/12/01 06:30:54;;;;;;;38.25;21.42;;;3.10;99.90;;;;;;4958240;28;20304;-91
2022/12/01 06:33:30;;;;;;;42.55;22.55;;;3.10;99.90;;;;;;4957868;28;20240;-91
2022/12/01 06:36:01;;;;;;;36.58;23.63;;;3.10;99.90;;;;;;4957710;28;20213;-90
2022/12/01 06:38:32;;;;;;;26.80;21.05;;;3.10;99.90;;;;;;4957463;28;20288;-90
2022/12/01 06:41:01;;;;;;;26.95;20.13;;;3.00;99.90;;;;;;4957449;28;20225;-90
2022/12/01 06:43:29;;;;;;;26.45;21.00;;;3.10;99.90;;;;;;4957628;28;20221;-90
2022/12/01 06:45:58;;;;;;;33.33;21.65;;;3.10;99.90;;;;;;4957567;28;20316;-91
2022/12/01 06:48:29;;;;;;;29.40;21.02;;;3.10;99.90;;;;;;4957486;29;20249;-90
2022/12/01 06:50:58;;;;;;;28.13;20.77;;;3.10;99.90;;;;;;4957649;28;20237;-90
2022/12/01 06:53:28;;;;;;;39.83;21.80;;;3.10;99.90;;;;;;4957426;28;20297;-90
2022/12/01 06:56:00;;;;;;;26.35;19.63;;;3.00;99.90;;;;;;4958057;28;20209;-90
2022/12/01 06:58:28;;;;;;;26.75;22.10;;;3.00;99.90;;;;;;4960994;29;20221;-91
2022/12/01 07:00:58;;;;;;;30.65;21.15;;;3.00;99.90;;;;;;4957404;28;20259;-90
2022/12/01 07:03:27;;;;;;;33.85;20.38;;;3.00;99.90;;;;;;4957328;28;20225;-90
2022/12/01 07:05:57;;;;;;;27.90;21.33;;;3.10;99.90;;;;;;4957228;28;20227;-90
2022/12/01 07:08:27;;;;;;;29.67;20.80;;;3.10;99.90;;;;;;4957504;28;20224;-90
2022/12/01 07:10:59;;;;;;;32.38;22.15;;;3.10;99.90;;;;;;4957269;28;20201;-90
2022/12/01 07:13:27;;;;;;;31.83;21.17;;;3.10;99.90;;;;;;4957065;28;20236;-90
2022/12/01 07:16:01;;;;;;;26.30;20.88;;;3.20;99.90;;;;;;4955840;28;20221;-91
2022/12/01 07:18:30;;;;;;;37.92;23.45;;;3.20;99.90;;;;;;4957015;28;20205;-90
2022/12/01 07:21:00;;;;;;;34.10;22.75;;;3.20;99.90;;;;;;4956784;28;20267;-90
2022/12/01 07:23:30;;;;;;;23.38;20.67;;;3.30;99.90;;;;;;4956846;28;20317;-90
2022/12/01 07:25:59;;;;;;;33.40;21.10;;;3.30;99.90;;;;;;4956959;28;20205;-90
2022/12/01 07:28:28;;;;;;;32.22;23.35;;;3.40;99.90;;;;;;4956556;28;20265;-90
2022/12/01 07:31:02;;;;;;;29.95;22.17;;;3.40;99.90;;;;;;4956729;28;20243;-90
2022/12/01 07:33:31;;;;;;;26.73;20.23;;;3.50;99.90;;;;;;4956188;28;20256;-89
2022/12/01 07:36:00;;;;;;;32.40;21.88;;;3.50;99.90;;;;;;4956371;28;20273;-92
2022/12/01 07:38:30;;;;;;;27.88;20.95;;;3.50;99.90;;;;;;4956643;28;20219;-92
2022/12/01 07:41:03;;;;;;;30.73;21.70;;;3.50;99.90;;;;;;4956443;28;20271;-91
2022/12/01 07:43:32;;;;;;;30.38;22.60;;;3.50;99.90;;;;;;4956213;28;20296;-90
2022/12/01 07:46:08;;;;;;;23.23;19.20;;;3.50;99.90;;;;;;4956381;28;20295;-90
2022/12/01 07:48:38;;;;;;;31.23;20.83;;;3.50;99.90;;;;;;4955957;28;20224;-91
2022/12/01 07:51:07;;;;;;;24.95;20.63;;;3.60;99.90;;;;;;4956775;28;20220;-90
2022/12/01 07:53:39;;;;;;;34.25;21.98;;;3.60;99.90;;;;;;4956848;28;20316;-90
2022/12/01 07:56:08;;;;;;;28.77;22.33;;;3.60;99.90;;;;;;4956107;28;20240;-85
2022/12/01 07:58:36;;;;;;;32.30;20.83;;;3.60;99.90;;;;;;4955888;28;20241;-84
2022/12/01 08:01:11;;;;;;;31.95;21.00;;;3.70;99.90;;;;;;4955980;28;20225;-84
2022/12/01 08:03:41;;;;;;;26.65;20.33;;;3.70;99.90;;;;;;4956291;28;20236;-90
2022/12/01 08:06:10;;;;;;;28.00;21.77;;;3.70;99.90;;;;;;4956297;28;20213;-90
2022/12/01 08:08:41;;;;;;;31.67;23.15;;;3.70;99.90;;;;;;4958587;28;20219;-90
2022/12/01 08:11:12;;;;;;;33.38;21.10;;;3.80;99.90;;;;;;4956268;28;20288;-90
2022/12/01 08:13:41;;;;;;;24.02;19.40;;;3.90;99.90;;;;;;4955851;29;20229;-90
2022/12/01 08:16:11;;;;;;;32.67;21.95;;;3.90;99.90;;;;;;4955918;28;20524;-90
2022/12/01 08:18:41;;;;;;;27.38;20.98;;;3.90;99.90;;;;;;4956117;28;20263;-90
2022/12/01 08:21:11;;;;;;;28.67;21.73;;;4.00;99.90;;;;;;4955927;28;20225;-92
2022/12/01 08:23:41;;;;;;;31.48;22.85;;;4.10;99.90;;;;;;4955919;28;20330;-89
2022/12/01 08:26:12;;;;;;;27.88;21.35;;;4.10;99.90;;;;;;4955873;28;20201;-90
2022/12/01 08:28:41;;;;;;;27.63;23.13;;;4.20;99.90;;;;;;4955453;28;20232;-91
2022/12/01 08:31:11;;;;;;;33.85;22.08;;;4.30;99.90;;;;;;4955686;28;20252;-90
2022/12/01 08:33:39;;;;;;;33.85;22.15;;;4.40;99.90;;;;;;4955678;28;20276;-90
2022/12/01 08:36:08;;;;;;;24.40;20.95;;;4.40;99.90;;;;;;4955673;28;20213;-90
2022/12/01 08:38:36;;;;;;;28.38;20.35;;;4.50;99.90;;;;;;4955191;28;20257;-90
2022/12/01 08:41:08;;;;;;;25.98;19.50;;;4.60;99.90;;;;;;4955139;28;20260;-91
2022/12/01 08:43:41;;;;;;;26.85;20.73;;;4.70;99.90;;;;;;4955620;28;20253;-90
2022/12/01 08:46:25;;;;;;;30.48;20.77;;;4.70;99.90;;;;;;4955534;28;20213;-90
2022/12/01 08:48:56;;;;;;;29.15;20.17;;;4.80;99.90;;;;;;4955112;28;20208;-92
2022/12/01 08:51:25;;;;;;;29.85;21.45;;;4.80;99.90;;;;;;4955526;28;20218;-90
2022/12/01 08:53:55;;;;;;;27.55;23.17;;;4.90;99.90;;;;;;4955103;28;20320;-91
2022/12/01 08:56:27;;;;;;;28.45;21.73;;;4.90;99.90;;;;;;4955332;28;20209;-92
2022/12/01 08:58:56;;;;;;;28.55;21.35;;;5.00;99.90;;;;;;4955318;28;20296;-91
2022/12/01 09:01:25;;;;;;;25.10;20.77;;;5.00;99.90;;;;;;4954954;28;20229;-91
2022/12/01 09:04:04;;;;;;;28.52;21.85;;;5.00;99.90;;;;;;4955172;28;20264;-91
2022/12/01 09:06:37;;;;;;;33.95;22.80;;;5.00;99.90;;;;;;4954967;28;20240;-91
2022/12/01 09:09:06;;;;;;;29.25;23.48;;;4.90;99.90;;;;;;4955067;28;20215;-91
2022/12/01 09:11:36;;;;;;;31.10;21.75;;;4.80;99.90;;;;;;4955160;28;20276;-91
2022/12/01 09:14:04;;;;;;;29.58;21.25;;;4.90;99.90;;;;;;4954691;28;20245;-91
2022/12/01 09:16:33;;;;;;;30.42;23.45;;;4.80;99.90;;;;;;4955118;28;20209;-91
2022/12/01 09:19:02;;;;;;;28.95;22.00;;;4.90;99.90;;;;;;4957035;28;20205;-91
2022/12/01 09:21:32;;;;;;;27.75;21.73;;;4.90;99.90;;;;;;4954965;28;20319;-91
2022/12/01 09:24:01;;;;;;;36.90;23.80;;;4.90;99.90;;;;;;4954718;28;20371;-91
2022/12/01 09:26:30;;;;;;;30.45;22.27;;;4.90;99.90;;;;;;4954720;28;20212;-91
2022/12/01 09:29:02;;;;;;;26.58;21.90;;;5.00;99.90;;;;;;4954884;28;20205;-91
2022/12/01 09:31:30;;;;;;;28.88;21.67;;;5.00;99.90;;;;;;4954700;28;20261;-91
2022/12/01 09:34:01;;;;;;;33.13;23.13;;;5.00;99.90;;;;;;4954473;28;20229;-91
2022/12/01 09:36:31;;;;;;;33.72;22.83;;;5.00;99.90;;;;;;4954567;28;20223;-91
2022/12/01 09:39:00;;;;;;;34.60;22.23;;;5.10;99.90;;;;;;4953460;28;20205;-91
2022/12/01 09:41:33;;;;;;;35.78;24.20;;;5.20;99.90;;;;;;4954656;28;20271;-91
2022/12/01 09:44:12;;;;;;;27.13;22.23;;;5.20;99.90;;;;;;4954705;28;20229;-91
2022/12/01 09:46:46;;;;;;;30.15;23.05;;;5.10;99.90;;;;;;4954096;28;20219;-91
2022/12/01 09:49:21;;;;;;;32.50;23.60;;;5.10;99.90;;;;;;4954451;28;20209;-91
2022/12/01 09:51:50;;;;;;;34.50;23.25;;;5.10;99.90;;;;;;4954580;28;20213;-91
2022/12/01 09:54:18;;;;;;;37.20;23.38;;;5.20;99.90;;;;;;4954484;28;20229;-91
2022/12/01 09:56:52;;;;;;;26.25;22.45;;;5.40;99.90;;;;;;4954122;28;20296;-90
2022/12/01 09:59:24;;;;;;;34.35;22.48;;;5.60;99.90;;;;;;4954613;28;20297;-90
2022/12/01 10:01:58;;;;;;;27.77;22.25;;;5.70;99.90;;;;;;4954742;28;20289;-91
2022/12/01 10:04:34;;;;;;;26.20;21.48;;;5.70;99.90;;;;;;4954567;28;20236;-90
2022/12/01 10:07:04;;;;;;;27.98;21.55;;;5.70;99.90;;;;;;4954547;28;20260;-91
2022/12/01 10:09:41;;;;;;;33.28;22.45;;;5.70;99.90;;;;;;4954086;28;20241;-91
2022/12/01 10:12:15;;;;;;;24.83;20.65;;;5.70;99.90;;;;;;4954524;28;20247;-90
2022/12/01 10:14:47;;;;;;;41.83;22.63;;;5.70;99.90;;;;;;4954205;28;20225;-90
2022/12/01 10:17:28;;;;;;;36.17;21.48;;;5.80;99.90;;;;;;4954627;28;20205;-90
2022/12/01 10:20:02;;;;;;;31.58;22.92;;;5.70;99.90;;;;;;4954333;28;20267;-90
2022/12/01 10:23:01;;;;;;;42.30;22.40;;;5.80;99.90;;;;;;4954201;28;20224;-90
2022/12/01 10:25:34;;;;;;;26.13;21.30;;;5.80;99.90;;;;;;4954173;29;20205;-90
2022/12/01 10:28:18;;;;;;;32.33;21.73;;;5.80;99.90;;;;;;4955168;28;20215;-90
2022/12/01 10:30:50;;;;;;;30.52;22.33;;;5.80;99.90;;;;;;4956510;28;20220;-91
2022/12/01 10:33:24;;;;;;;31.90;22.98;;;5.80;99.90;;;;;;4953912;28;20275;-90
2022/12/01 10:35:53;;;;;;;36.08;22.40;;;5.80;99.90;;;;;;4954107;28;20213;-92
2022/12/01 10:38:27;;;;;;;30.38;23.42;;;5.90;99.90;;;;;;4954714;28;20207;-90
2022/12/01 10:40:59;;;;;;;23.02;19.38;;;5.90;99.90;;;;;;4954188;28;20252;-90
2022/12/01 10:43:32;;;;;;;32.42;22.48;;;5.90;99.90;;;;;;4953829;28;20280;-90
2022/12/01 10:46:19;;;;;;;39.05;23.15;;;6.00;99.90;;;;;;4954162;28;20397;-90
2022/12/01 10:48:54;;;;;;;28.55;21.38;;;6.00;99.90;;;;;;4953823;28;20220;-90
2022/12/01 10:51:23;;;;;;;31.35;23.95;;;6.00;99.90;;;;;;4955640;28;20292;-90
2022/12/01 10:53:59;;;;;;;29.23;21.50;;;6.00;99.90;;;;;;4957153;28;20285;-90
2022/12/01 10:56:28;;;;;;;30.23;19.60;;;6.10;99.90;;;;;;4957683;28;20240;-90
2022/12/01 10:58:57;;;;;;;33.35;20.40;;;6.10;99.90;;;;;;4957589;28;20229;-91
2022/12/01 11:01:30;;;;;;;32.78;24.40;;;6.10;99.90;;;;;;4957940;28;20229;-90
2022/12/01 11:04:05;;;;;;;34.55;23.48;;;6.10;99.90;;;;;;4956802;28;20239;-90
2022/12/01 11:06:35;;;;;;;28.25;21.48;;;6.10;99.90;;;;;;4957193;28;20231;-90
2022/12/01 11:09:06;;;;;;;32.08;22.75;;;6.10;99.90;;;;;;4956872;28;20300;-90
2022/12/01 11:11:38;;;;;;;29.00;21.60;;;6.20;99.90;;;;;;4957190;28;20217;-90
2022/12/01 11:14:17;;;;;;;23.58;19.52;;;6.20;99.90;;;;;;4957056;28;20217;-90
2022/12/01 11:16:50;;;;;;;30.40;20.75;;;6.40;99.90;;;;;;4956980;28;20232;-91
2022/12/01 11:19:29;;;;;;;25.33;20.58;;;6.50;99.90;;;;;;4957035;28;20224;-90
2022/12/01 11:21:59;;;;;;;29.52;23.00;;;6.50;99.90;;;;;;4956779;28;20212;-90
2022/12/01 11:24:40;;;;;;;31.35;21.77;;;6.50;99.90;;;;;;4957318;28;20328;-90
2022/12/01 11:27:16;;;;;;;33.75;21.48;;;6.60;99.90;;;;;;4956518;28;20299;-91
2022/12/01 11:29:46;;;;;;;26.42;21.35;;;6.50;99.90;;;;;;4956470;28;20272;-90
2022/12/01 11:32:23;;;;;;;25.02;20.75;;;6.60;99.90;;;;;;4956462;28;20203;-90
2022/12/01 11:34:55;;;;;;;26.80;20.40;;;6.60;99.90;;;;;;4956740;28;20320;-90
2022/12/01 11:37:27;;;;;;;24.00;20.42;;;6.60;99.90;;;;;;4956450;28;20215;-90
2022/12/01 11:40:04;;;;;;;36.92;21.70;;;6.60;99.90;;;;;;4958817;28;20268;-89
2022/12/01 11:42:33;;;;;;;28.90;20.80;;;6.70;99.90;;;;;;4957374;29;20320;-91
2022/12/01 11:45:17;;;;;;;25.88;19.65;;;6.70;99.90;;;;;;4956568;28;20209;-91
2022/12/01 11:48:02;;;;;;;31.45;21.20;;;6.70;99.90;;;;;;4956099;28;20300;-91
2022/12/01 11:50:33;;;;;;;24.10;19.48;;;6.80;99.90;;;;;;4956183;28;20212;-91
2022/12/01 11:53:02;;;;;;;30.13;20.48;;;7.00;99.90;;;;;;4956577;28;20236;-91
2022/12/01 11:55:31;;;;;;;28.40;20.98;;;7.10;99.90;;;;;;4956354;29;20256;-85
2022/12/01 11:58:02;;;;;;;31.67;21.52;;;7.20;99.90;;;;;;4955846;28;20205;-85
2022/12/01 12:00:43;;;;;;;25.23;21.38;;;7.40;99.90;;;;;;4956251;28;20232;-85
2022/12/01 12:03:20;;;;;;;28.65;19.55;;;7.40;99.90;;;;;;4955230;28;20237;-85
2022/12/01 12:06:20;;;;;;;28.30;21.08;;;7.40;99.90;;;;;;4955881;28;20215;-85
2022/12/01 12:09:30;;;;;;;23.00;19.48;;;7.30;99.90;;;;;;4955747;29;20209;-90
2022/12/01 12:12:14;;;;;;;27.40;19.88;;;7.30;99.90;;;;;;4956134;28;20309;-90
2022/12/01 12:14:56;;;;;;;25.65;20.00;;;7.20;99.90;;;;;;4955836;28;20364;-91
2022/12/01 12:17:43;;;;;;;23.52;18.13;;;7.20;99.90;;;;;;4955934;28;20209;-90
2022/12/01 12:20:35;;;;;;;25.98;19.20;;;7.30;99.90;;;;;;4955762;28;20212;-90
2022/12/01 12:23:28;;;;;;;22.70;18.45;;;7.40;99.90;;;;;;4955716;28;20237;-90
2022/12/01 12:26:07;;;;;;;25.77;19.65;;;7.40;99.90;;;;;;4955591;28;20209;-90
2022/12/01 12:28:52;;;;;;;22.63;18.30;;;7.60;99.90;;;;;;4955676;28;20209;-91
2022/12/01 12:31:28;;;;;;;24.90;19.15;;;7.80;99.90;;;;;;4956025;28;20304;-90
2022/12/01 12:34:14;;;;;;;25.38;19.27;;;7.80;99.90;;;;;;4955559;28;20284;-91
2022/12/01 12:36:56;;;;;;;28.90;20.83;;;7.70;99.90;;;;;;4955199;28;20204;-90
2022/12/01 12:39:55;;;;;;;30.75;20.30;;;7.70;99.90;;;;;;4955383;28;20312;-91
2022/12/01 12:42:42;;;;;;;28.08;20.23;;;7.50;99.90;;;;;;4955581;28;20211;-91
2022/12/01 12:45:21;;;;;;;26.48;19.55;;;7.30;99.90;;;;;;4955761;28;20212;-90
2022/12/01 12:48:03;;;;;;;26.75;19.83;;;7.20;99.90;;;;;;4954924;28;20219;-91
2022/12/01 12:50:39;;;;;;;30.83;18.90;;;7.10;99.90;;;;;;4956259;28;20292;-90
2022/12/01 12:53:15;;;;;;;38.15;21.80;;;6.90;99.90;;;;;;4957293;28;20289;-90
2022/12/01 12:55:48;;;;;;;27.38;18.63;;;6.80;99.90;;;;;;4955681;28;20299;-90
2022/12/01 12:58:22;;;;;;;23.15;19.58;;;6.70;99.90;;;;;;4955442;28;20292;-91
2022/12/01 13:00:54;;;;;;;19.85;17.35;;;6.60;99.90;;;;;;4954699;28;20236;-90
2022/12/01 13:03:34;;;;;;;24.45;19.13;;;6.50;99.90;;;;;;4955005;28;20301;-90
2022/12/01 13:06:09;;;;;;;24.02;18.33;;;6.40;99.90;;;;;;4955342;28;20295;-89
2022/12/01 13:08:43;;;;;;;29.75;18.67;;;6.50;99.90;;;;;;4954782;28;20215;-90